Here is the Quick Look data you requested

The Data originates at the National Weather Service, and is made available here by the UAlbany Department of Atmospheric and Environmental Sciences

Surface Observations

KCBE 202355Z AUTO 29006KT 10SM CLR 32/23 A2996 RMK AO2 T03160226 10358 20316
 403580223=
KCBE 210015Z AUTO 29010KT 10SM CLR 32/22 A2996 RMK AO2 T03150224=
KCBE 210035Z AUTO 29008KT 10SM CLR 31/22 A2995 RMK AO2 T03120224=
KCBE 210055Z AUTO 29006KT 10SM CLR 31/23 A2996 RMK AO2 T03090225=
KCBE 210115Z AUTO 30007KT 10SM CLR 31/23 A2997 RMK AO2 T03070226=
KCBE 210135Z AUTO 35004KT 10SM CLR 30/23 A2997 RMK AO2 T02960228=
KCBE 210155Z AUTO 32006KT 10SM CLR 30/23 A2997 RMK AO2 T02960225=
KCBE 210215Z AUTO 25003KT 10SM CLR 30/22 A2997 RMK AO2 T03020225=
KCBE 210235Z AUTO 00000KT 10SM CLR 29/23 A2997 RMK AO2 T02900230=
KCBE 210255Z AUTO 00000KT 10SM CLR 28/23 A2998 RMK AO2 T02810231=
KCBE 210315Z AUTO 00000KT 10SM CLR 28/23 A2997 RMK AO2 T02780228=
KCBE 210335Z AUTO 14003KT 10SM CLR 27/23 A2997 RMK AO2 T02690229=
KCBE 210355Z AUTO 00000KT 10SM CLR 28/23 A2998 RMK AO2 T02770230=
KCBE 210415Z AUTO 27005G16KT 10SM CLR 30/23 A2998 RMK AO2 T02960225=
KCBE 210435Z AUTO 00000KT 10SM CLR 29/23 A2998 RMK AO2 T02870226=
KCBE 210455Z AUTO 00000KT 10SM CLR 27/23 A2998 RMK AO2 T02700227=
KCBE 210515Z AUTO 00000KT 10SM CLR 27/23 A2998 RMK AO2 T02730228=
KCBE 210535Z AUTO 00000KT 10SM CLR 27/23 A2997 RMK AO2 T02680226=
KCBE 210555Z AUTO 00000KT 10SM CLR 26/23 A2996 RMK AO2 T02550227 10318 20254=
KCBE 210615Z AUTO 00000KT 10SM CLR 25/22 A2995 RMK AO2 T02500225=
KCBE 210635Z AUTO 00000KT 10SM CLR 25/23 A2996 RMK AO2 T02490227=
KCBE 210655Z AUTO 00000KT 10SM CLR 24/23 A2996 RMK AO2 T02430225=
KCBE 210715Z AUTO 31003KT 10SM CLR 25/22 A2996 RMK AO2 T02470225=
KCBE 210735Z AUTO 00000KT 10SM CLR 24/22 A2995 RMK AO2 T02400224=
KCBE 210755Z AUTO 00000KT 10SM CLR 24/22 A2994 RMK AO2 T02360222=
KCBE 210815Z AUTO 00000KT 7SM CLR 23/22 A2994 RMK AO2 T02340222=
KCBE 210835Z AUTO 00000KT 10SM CLR 24/22 A2994 RMK AO2=
KCBE 210855Z AUTO 00000KT 10SM CLR 24/22 A2995 RMK AO2 T02380223=
KCBE 210915Z AUTO 04003KT 7SM CLR 23/22 A2995 RMK AO2 T02320220=
KCBE 210935Z AUTO 00000KT 10SM CLR 23/22 A2995 RMK AO2 T02310220=
KCBE 210955Z AUTO 00000KT 7SM BR CLR 23/22 A2995 RMK AO2 T02290219=
KCBE 211015Z AUTO 00000KT 4SM BR CLR 22/22 A2997 RMK AO2 T02250218=
KCBE 211035Z AUTO 00000KT 5SM BR CLR 23/22 A2998 RMK AO2 T02270219=
KCBE 211055Z AUTO 00000KT 7SM BR CLR 23/22 A2998 RMK AO2 T02350223=
KCBE 211115Z AUTO 06003KT 7SM CLR 24/23 A2999 RMK AO2 T02410227=
KCBE 211135Z AUTO 15004KT 10SM CLR 26/23 A2999 RMK AO2 T02560227=
KCBE 211155Z AUTO 00000KT 10SM CLR 26/23 A3000 RMK AO2 T02610230 10264 20224=
KCBE 211215Z AUTO 00000KT 10SM CLR 27/23 A2999 RMK AO2 T02710233=
KCBE 211235Z AUTO 00000KT 10SM CLR 28/24 A3000 RMK AO2 T02810236=
KCBE 211255Z AUTO 00000KT 10SM CLR 29/24 A2999 RMK AO2 T02920240=
KCBE 211315Z AUTO 00000KT 10SM CLR 30/24 A2999 RMK AO2 T03020238=
KCBE 211335Z AUTO 26003KT 10SM CLR 31/24 A2998 RMK AO2 T03090237=
KCBE 211355Z AUTO 26008KT 10SM SCT039 32/24 A2998 RMK AO2 T03160237=
KCBE 211415Z AUTO 29007KT 10SM SCT041 32/24 A2998 RMK AO2 T03190236=
KCBE 211435Z AUTO 29005KT 10SM SCT046 32/23 A2997 RMK AO2 T03220232=
KCBE 211455Z AUTO 29010KT 10SM SCT049 SCT055 SCT065 33/23 A2998 RMK AO2
 T03280232=
KCBE 211515Z AUTO 27007KT 10SM SCT047 SCT055 SCT065 33/23 A2997 RMK AO2
 T03320232=
KCBE 211535Z AUTO 30007KT 10SM SCT049 SCT055 BKN070 33/23 A2997 RMK AO2
 T03290229=
KCBE 211555Z AUTO 27008KT 10SM BKN049 BKN060 BKN075 33/23 A2997 RMK AO2
 T03290227=
KCBE 211615Z AUTO 28008KT 10SM SCT049 SCT065 SCT075 33/23 A2997 RMK AO2
 T03320230=
KCBE 211635Z AUTO 29005KT 10SM CLR 34/23 A2997 RMK AO2 T03360225=
KCBE 211655Z AUTO 28011KT 10SM CLR 34/22 A2996 RMK AO2 T03410219=
KCBE 211715Z AUTO 30008KT 10SM SCT070 34/22 A2996 RMK AO2 T03380222=
KCBE 211735Z AUTO 24012KT 190V260 10SM SCT060 35/21 A2996 RMK AO2 T03450215=
KCBE 211750Z AUTO 24008KT 10SM SCT060 35/22 A2995 RMK AO2 T03500218 10351 20260=
KCBE 211815Z AUTO 30008KT 10SM SCT060 35/21 A2994 RMK AO2 T03490207=
KCBE 211835Z AUTO 25009KT 10SM CLR 35/21 A2993 RMK AO2 T03530212=
KCBE 211855Z AUTO 25009KT 10SM SCT065 35/22 A2992 RMK AO2 T03530218=
KCBE 211915Z AUTO 26010G14KT 10SM SCT065 35/21 A2993 RMK AO2 T03490209=
KCBE 211935Z AUTO 27007KT 260V320 10SM SCT065 35/22 A2992 RMK AO2 T03520218=
KCBE 211955Z AUTO 24006KT 10SM SCT065 34/21 A2992 RMK AO2 T03430208=
KCBE 212015Z AUTO 26008KT 10SM BKN065 35/21 A2992 RMK AO2 T03540215=
KCBE 212035Z AUTO 29005KT 10SM SCT065 BKN080 BKN090 35/22 A2991 RMK AO2
 T03520215=
KCBE 212055Z AUTO 27010KT 10SM SCT065 SCT080 SCT090 35/22 A2990 RMK AO2
 T03550220=
KCBE 212115Z AUTO 24007KT 220V280 10SM SCT080 35/22 A2990 RMK AO2 T03510216=
KCBE 212135Z AUTO 29006KT 10SM SCT065 SCT080 35/22 A2990 RMK AO2 T03530217=
KCBE 212150Z AUTO 27006KT 10SM SCT065 35/21 A2990 RMK AO2 T03490214=
KCBE 212215Z AUTO 27008KT 10SM BKN065 34/21 A2991 RMK AO2 T03360210=
KCBE 212235Z AUTO 06004KT 10SM BKN065 BKN080 BKN085 33/22 A2993 RMK AO2
 T03270219=
KCBE 212255Z AUTO 05007KT 10SM SCT065 SCT075 31/22 A2993 RMK AO2 T03050217=
KCBE 212315Z AUTO 10004KT 10SM BKN060 31/22 A2994 RMK AO2 T03050223=
KCBE 212335Z AUTO 21022G29KT 10SM BKN060 OVC070 28/18 A2996 RMK AO2 T02800179=
KCBE 212355Z AUTO 24016G29KT 10SM SCT049 SCT060 SCT120 28/17 A2996 RMK AO2
 T02760171 10360 20275 403600224=
KCBE 220015Z AUTO 18009G18KT 10SM SCT100 26/18 A2998 RMK AO2 T02570177=
KCBE 220035Z AUTO 16005KT 10SM BKN110 24/19 A3000 RMK AO2 T02440188=
KCBE 220055Z AUTO 00000KT 10SM SCT120 24/19 A3000 RMK AO2 T02420189=
KCBE 220115Z AUTO 00000KT 10SM SCT120 24/19 A2997 RMK AO2 T02370193=
KCBE 220135Z AUTO 04004KT 5SM CLR 23/19 A2996 RMK AO2 T02340195=
KCBE 220155Z AUTO 03005KT 10SM CLR 24/19 A2995 RMK AO2 T02390191=
KCBE 220215Z AUTO 33004KT 10SM CLR 24/19 A2994 RMK AO2 T02430191=
KCBE 220235Z AUTO 21003KT 10SM CLR 24/19 A2996 RMK AO2 T02410195=
KCBE 220255Z AUTO 19004KT 10SM CLR 24/20 A2997 RMK AO2=
KCBE 220315Z AUTO 19004KT 10SM CLR 23/20 A2997 RMK AO2 T02330196=
KCBE 220335Z AUTO 15003KT 10SM CLR 23/20 A2997 RMK AO2 T02310195=
KCBE 220355Z AUTO 14003KT 10SM CLR 23/19 A2997 RMK AO2 T02320194=
KCBE 220415Z AUTO 16005KT 10SM CLR 23/19 A2997 RMK AO2 T02330193=
KCBE 220435Z AUTO 18003KT 10SM CLR 23/19 A2997 RMK AO2 T02320193=
KCBE 220455Z AUTO 00000KT 10SM CLR 23/19 A2997 RMK AO2 T02290194=
KCBE 220515Z AUTO 00000KT 10SM CLR 23/19 A2996 RMK AO2 T02270195=
KCBE 220535Z AUTO 00000KT 10SM CLR 22/20 A2996 RMK AO2 T02250195=
KCBE 220555Z AUTO 00000KT 10SM SCT080 22/20 A2996 RMK AO2 T02230196 10274 20222=
KCBE 220615Z AUTO 00000KT 10SM SCT065 SCT080 22/20 A2997 RMK AO2 T02240196=